createdAt,value
2023-03-15T00:05:46.363Z,98605.25
2023-03-15T00:11:49.442Z,98614.50
2023-03-15T00:17:51.348Z,98632.88
2023-03-15T00:23:53.310Z,98638.16
2023-03-15T00:29:55.236Z,98635.19
2023-03-15T00:35:57.133Z,98644.91
2023-03-15T00:41:59.040Z,98647.38
2023-03-15T00:48:00.946Z,98663.69
2023-03-15T00:54:03.218Z,98662.81
2023-03-15T01:00:05.921Z,98677.97
2023-03-15T01:06:20.712Z,98671.00
2023-03-15T01:12:22.610Z,98678.78
2023-03-15T01:18:24.957Z,98672.53
2023-03-15T01:24:26.844Z,98671.72
2023-03-15T01:30:28.793Z,98679.78
2023-03-15T01:36:30.760Z,98675.47
2023-03-15T01:42:32.748Z,98676.59
2023-03-15T01:48:46.360Z,98672.44
2023-03-15T01:54:57.194Z,98682.88
2023-03-15T02:00:59.131Z,98680.81
2023-03-15T02:07:03.639Z,98681.75
2023-03-15T02:13:07.234Z,98677.13
2023-03-15T02:19:20.460Z,98670.38
2023-03-15T02:25:49.918Z,98684.91
2023-03-15T02:31:53.135Z,98691.22
2023-03-15T02:37:55.360Z,98699.41
2023-03-15T02:44:05.506Z,98696.22
2023-03-15T02:50:08.272Z,98693.72
2023-03-15T02:56:10.176Z,98708.41
2023-03-15T03:02:13.357Z,98714.22
2023-03-15T03:08:16.488Z,98735.09
2023-03-15T03:14:18.529Z,98739.19
2023-03-15T03:20:20.692Z,98744.59
2023-03-15T03:26:28.022Z,98748.56
2023-03-15T03:32:29.993Z,98755.69
2023-03-15T03:38:31.978Z,98765.06
2023-03-15T03:44:33.862Z,98772.59
2023-03-15T03:50:35.885Z,98777.94
2023-03-15T03:56:39.143Z,98786.19
2023-03-15T04:02:44.353Z,98796.34
2023-03-15T04:08:46.306Z,98805.56
2023-03-15T04:14:48.200Z,98807.22
2023-03-15T04:20:54.483Z,98810.63
2023-03-15T04:26:57.927Z,98822.97
2023-03-15T04:33:00.074Z,98836.03
2023-03-15T04:39:07.206Z,98838.06
2023-03-15T04:45:09.676Z,98836.88
2023-03-15T04:51:11.593Z,98844.16
2023-03-15T04:57:13.515Z,98854.22
2023-03-15T05:03:15.446Z,98857.38
2023-03-15T05:09:17.975Z,98855.44
2023-03-15T05:15:20.307Z,98864.94
2023-03-15T05:21:22.194Z,98878.34
2023-03-15T05:27:24.107Z,98888.41
2023-03-15T05:33:26.257Z,98889.28
2023-03-15T05:39:28.203Z,98913.44
2023-03-15T05:45:30.318Z,98918.81
2023-03-15T05:51:32.243Z,98940.38
2023-03-15T05:57:34.141Z,98950.16
2023-03-15T06:03:36.264Z,98958.47
2023-03-15T06:09:38.215Z,98966.25
2023-03-15T06:15:40.277Z,98984.63
2023-03-15T06:21:42.190Z,98992.28
2023-03-15T06:27:44.080Z,98997.03
2023-03-15T06:33:45.992Z,99008.97
2023-03-15T06:39:48.249Z,99009.75
2023-03-15T06:45:50.178Z,99020.53
2023-03-15T06:51:52.104Z,99036.34
2023-03-15T06:57:54.067Z,99042.72
2023-03-15T07:03:55.958Z,99064.91
2023-03-15T07:09:57.868Z,99059.34
2023-03-15T07:15:59.910Z,99068.97
2023-03-15T07:22:01.871Z,99076.47
2023-03-15T07:28:03.887Z,99085.06
2023-03-15T07:34:05.769Z,99089.78
2023-03-15T07:40:10.007Z,99087.47
2023-03-15T07:46:12.012Z,99106.91
2023-03-15T07:52:13.950Z,99106.09
2023-03-15T07:58:18.475Z,99100.25
2023-03-15T08:04:21.882Z,99107.31
2023-03-15T08:10:23.945Z,99105.53
2023-03-15T08:16:25.924Z,99115.59
2023-03-15T08:22:27.886Z,99130.03
2023-03-15T08:28:29.740Z,99137.84
2023-03-15T08:34:34.959Z,99129.97
2023-03-15T08:40:38.858Z,99144.56
2023-03-15T08:46:41.419Z,99157.19
2023-03-15T08:52:43.813Z,99161.16
2023-03-15T08:58:45.954Z,99168.97
2023-03-15T09:04:48.089Z,99175.97
2023-03-15T09:10:53.518Z,99195.00
2023-03-15T09:16:55.460Z,99196.88
2023-03-15T09:22:58.838Z,99208.97
2023-03-15T09:29:00.748Z,99215.25
2023-03-15T09:35:08.766Z,99228.22
2023-03-15T09:41:31.857Z,99232.41
2023-03-15T09:47:54.794Z,99227.63
2023-03-15T09:54:32.258Z,99243.47
2023-03-15T10:00:56.855Z,99246.78
2023-03-15T10:07:02.889Z,99247.47
2023-03-15T10:13:33.135Z,99251.56
2023-03-15T10:19:34.875Z,99261.25
2023-03-15T10:25:38.840Z,99256.72
2023-03-15T10:31:45.111Z,99261.97
2023-03-15T10:37:47.901Z,99277.72
2023-03-15T10:44:06.237Z,99268.84
2023-03-15T10:50:16.583Z,99280.41
2023-03-15T10:56:28.639Z,99275.09
2023-03-15T11:02:31.667Z,99275.59
2023-03-15T11:08:42.947Z,99263.19
2023-03-15T11:14:49.315Z,99274.44
2023-03-15T11:20:54.587Z,99281.13
2023-03-15T11:27:04.094Z,99281.69
2023-03-15T11:33:09.437Z,99299.28
2023-03-15T11:39:22.911Z,99312.78
2023-03-15T11:45:34.821Z,99313.81
2023-03-15T11:51:37.174Z,99310.38
2023-03-15T11:57:46.212Z,99317.94
2023-03-15T12:03:49.434Z,99322.59
2023-03-15T12:09:57.023Z,99326.38
2023-03-15T12:15:59.300Z,99334.97
2023-03-15T12:22:01.313Z,99329.31
2023-03-15T12:28:09.683Z,99323.78
2023-03-15T12:34:22.863Z,99321.38
2023-03-15T12:40:52.925Z,99328.00
2023-03-15T12:46:57.537Z,99335.78
2023-03-15T12:53:02.000Z,99327.63
2023-03-15T12:59:27.543Z,99342.22
2023-03-15T13:05:45.219Z,99355.72
2023-03-15T13:12:08.356Z,99343.50
2023-03-15T13:18:21.928Z,99360.78
2023-03-15T13:24:48.908Z,99343.50
2023-03-15T13:30:56.060Z,99347.50
2023-03-15T13:37:02.144Z,99355.97
2023-03-15T13:43:04.073Z,99359.75
2023-03-15T13:49:06.592Z,99354.13
2023-03-15T13:55:13.347Z,99369.38
2023-03-15T14:01:17.035Z,99366.50
2023-03-15T14:07:29.985Z,99371.16
2023-03-15T14:13:59.918Z,99385.63
2023-03-15T14:20:09.299Z,99383.28
2023-03-15T14:26:36.673Z,99399.16
2023-03-15T14:32:50.741Z,99407.25
2023-03-15T14:38:56.717Z,99436.53
2023-03-15T14:44:58.576Z,99451.16
2023-03-15T14:51:00.530Z,99436.84
2023-03-15T14:57:02.461Z,99433.91
2023-03-15T15:03:15.165Z,99445.84
2023-03-15T15:09:22.843Z,99458.06
2023-03-15T15:15:24.769Z,99462.00
2023-03-15T15:21:33.629Z,99479.00
2023-03-15T15:27:35.996Z,99475.88
2023-03-15T15:33:37.878Z,99476.94
2023-03-15T15:39:41.496Z,99470.66
2023-03-15T15:45:43.424Z,99476.00
2023-03-15T15:51:49.654Z,99477.66
2023-03-15T15:57:54.009Z,99481.41
2023-03-15T16:03:55.905Z,99482.84
2023-03-15T16:09:59.345Z,99489.09
2023-03-15T16:16:01.382Z,99483.94
2023-03-15T16:22:03.471Z,99494.44
2023-03-15T16:28:07.831Z,99494.50
2023-03-15T16:34:12.758Z,99509.06
2023-03-15T16:40:27.055Z,99501.63
2023-03-15T16:46:29.018Z,99510.84
2023-03-15T16:52:32.734Z,99513.53
2023-03-15T16:58:34.668Z,99528.16
2023-03-15T17:04:36.572Z,99526.00
2023-03-15T17:10:40.208Z,99533.09
2023-03-15T17:16:42.676Z,99543.03
2023-03-15T17:22:44.690Z,99556.41
2023-03-15T17:28:48.158Z,99554.22
2023-03-15T17:34:50.060Z,99550.50
2023-03-15T17:40:52.670Z,99564.53
2023-03-15T17:46:54.691Z,99565.31
2023-03-15T17:53:07.762Z,99570.66
2023-03-15T17:59:12.384Z,99573.56
2023-03-15T18:05:19.647Z,99575.38
2023-03-15T18:11:33.797Z,99582.97
2023-03-15T18:17:35.741Z,99571.53
2023-03-15T18:23:37.678Z,99585.31
2023-03-15T18:29:39.663Z,99593.34
2023-03-15T18:35:41.633Z,99591.00
2023-03-15T18:41:43.533Z,99594.31
2023-03-15T18:47:46.211Z,99590.03
2023-03-15T18:53:48.737Z,99604.66
2023-03-15T18:59:51.322Z,99604.53
2023-03-15T19:05:53.663Z,99610.91
2023-03-15T19:11:55.569Z,99607.66
2023-03-15T19:17:57.511Z,99605.13
2023-03-15T19:23:59.533Z,99610.72
2023-03-15T19:30:01.975Z,99615.03
2023-03-15T19:36:04.709Z,99625.00
2023-03-15T19:42:06.654Z,99632.09
2023-03-15T19:48:08.623Z,99634.69
2023-03-15T19:54:10.609Z,99652.31
2023-03-15T20:00:16.077Z,99658.47
2023-03-15T20:06:18.229Z,99663.88
2023-03-15T20:12:21.253Z,99679.41
2023-03-15T20:18:23.429Z,99675.41
2023-03-15T20:24:25.481Z,99686.59
2023-03-15T20:30:27.490Z,99693.72
2023-03-15T20:36:30.012Z,99696.81
2023-03-15T20:42:32.826Z,99700.56
2023-03-15T20:48:36.173Z,99697.66
2023-03-15T20:54:38.128Z,99715.69
2023-03-15T21:00:41.067Z,99718.72
2023-03-15T21:06:43.062Z,99715.84
2023-03-15T21:12:45.042Z,99715.75
2023-03-15T21:18:51.690Z,99706.41
2023-03-15T21:24:56.145Z,99707.88
2023-03-15T21:30:58.634Z,99711.50
2023-03-15T21:37:00.644Z,99712.59
2023-03-15T21:43:02.637Z,99719.03
2023-03-15T21:49:04.709Z,99715.81
2023-03-15T21:55:08.359Z,99715.81
2023-03-15T22:01:13.969Z,99713.44
2023-03-15T22:07:16.047Z,99716.53
2023-03-15T22:13:17.937Z,99719.66
2023-03-15T22:19:19.860Z,99724.59
2023-03-15T22:25:21.851Z,99719.44
2023-03-15T22:31:23.780Z,99724.47
2023-03-15T22:37:25.849Z,99718.00
2023-03-15T22:43:27.847Z,99723.41
2023-03-15T22:49:29.770Z,99729.38
2023-03-15T22:55:31.642Z,99730.09
2023-03-15T23:01:33.633Z,99744.72
2023-03-15T23:07:35.661Z,99736.81
2023-03-15T23:13:37.992Z,99741.00
2023-03-15T23:19:40.422Z,99745.66
2023-03-15T23:25:43.100Z,99746.38
2023-03-15T23:31:45.038Z,99750.19
2023-03-15T23:37:47.409Z,99755.72
2023-03-15T23:43:49.300Z,99762.03
2023-03-15T23:49:51.848Z,99769.94
2023-03-15T23:55:54.628Z,99775.41
